Flight Track Log - Related Links

Times and Time Zones

All times are in EDT time to prevent confusion due to time zone crossing. See the JZA8145 flight status page for this flight to view local times or setup timezone preferences in your user account.

Time Position Orientation Groundspeed Altitude Reporting Facility
EDT Latitude Longitude Course Direction KTS MPH feet Rate Location/Type
Sun 15:02:35 53.3000 -113.6167 166° South 20 23 2,400  Level Edmonton Center
Sun 15:03:35 53.3167 -113.5833 50° Northeast 140 161 3,800 1,350 Climbing Edmonton Center
Sun 15:04:35 53.3167 -113.5000 90° East 160 184 5,100 1,150 Climbing Edmonton Center
Sun 15:05:35 53.2667 -113.5000 180° South 190 219 6,100 1,050 Climbing Edmonton Center
Sun 15:06:35 53.2167 -113.4833 169° South 200 230 7,200 1,100 Climbing Edmonton Center
Sun 15:07:00 53.0512 -113.8115 169° South  Level FlightAware Approximate
Sun 15:07:35 53.1667 -113.5000 191° South 200 230 8,300  Level Edmonton Center
Sun 15:08:00 52.9824 -113.7886 169° South  Level FlightAware Approximate
Sun 15:08:35 53.1000 -113.5167 189° South 200 230 9,700  Level Edmonton Center
Sun 15:09:00 52.9137 -113.7655 166° South  Level FlightAware Approximate
Sun 15:09:35 53.0500 -113.5000 169° South 200 230 10,900  Level Edmonton Center
Sun 15:10:35 52.9833 -113.5167 189° South 200 230 12,100 1,150 Climbing Edmonton Center
Sun 15:11:35 52.9333 -113.5000 169° South 200 230 13,200 1,100 Climbing Edmonton Center
Sun 15:12:35 52.8833 -113.5167 191° South 210 242 14,300 900 Climbing Edmonton Center
Sun 15:13:35 52.8000 -113.5333 187° South 210 242 15,000 350 Climbing Edmonton Center
Sun 15:14:35 52.7500 -113.5333 180° South 250 288 15,000  Level Edmonton Center
Sun 15:15:35 52.6667 -113.5333 180° South 260 299 15,000  Level Edmonton Center
Sun 15:16:35 52.6000 -113.5500 189° South 260 299 15,000  Level Edmonton Center
Sun 15:17:35 52.5167 -113.5667 187° South 260 299 15,000  Level Edmonton Center
Sun 15:18:35 52.4500 -113.5500 171° South 260 299 15,000  Level Edmonton Center
Sun 15:19:35 52.3833 -113.5667 189° South 260 299 15,000  Level Edmonton Center
Sun 15:20:35 52.3167 -113.5833 189° South 260 299 15,000  Level Edmonton Center
Sun 15:21:35 52.2333 -113.5833 180° South 260 299 15,000  Level Edmonton Center
Sun 15:22:35 52.1667 -113.5667 171° South 260 299 15,000  Level Edmonton Center
Sun 15:23:35 52.0667 -113.5833 186° South 260 299 15,000  Level Edmonton Center
Sun 15:24:35 52.0000 -113.6000 189° South 270 311 15,000  Level Edmonton Center
Sun 15:25:35 51.9333 -113.6167 189° South 260 299 15,000 -50 Level Edmonton Center
Sun 15:26:35 51.8667 -113.6167 180° South 260 299 14,900 -650 Descending Edmonton Center
Sun 15:27:35 51.7833 -113.6333 187° South 270 311 13,700 -1,250 Descending Edmonton Center
Sun 15:28:35 51.7167 -113.6500 189° South 270 311 12,400 -1,250 Descending Edmonton Center
Sun 15:29:35 51.6333 -113.6833 194° South 270 311 11,200 -1,150 Descending Edmonton Center
Sun 15:30:35 51.5667 -113.7333 205° Southwest 270 311 10,100 -1,000 Descending Edmonton Center
Sun 15:31:35 51.5000 -113.7333 180° South 270 311 9,200 -950 Descending Edmonton Center
Sun 15:32:35 51.4333 -113.7833 205° Southwest 270 311 8,200 -600 Descending Edmonton Center
Sun 15:33:35 51.3500 -113.7833 180° South 260 299 8,000 -100 Descending Edmonton Center
Sun 15:34:35 51.2667 -113.8333 201° Southwest 260 299 8,000  Level Edmonton Center
Sun 15:35:35 51.2000 -113.8667 197° South 260 299 8,000  Level Edmonton Center
Sun 15:36:35 51.1333 -113.8500 171° South 250 288 8,000  Level Edmonton Center
Sun 15:37:35 51.0833 -113.7833 140° Southeast 250 288 8,000  Level Edmonton Center
Sun 15:38:35 51.0667 -113.6833 105° East 230 265 8,000 -700 Level Edmonton Center
Sun 15:39:35 51.0000 -113.6833 180° South 230 265 6,600 -1,000 Descending Edmonton Center
Sun 15:40:35 51.0000 -113.7667 270° West 190 219 6,000 -300 Descending Edmonton Center
Sun 15:41:35 51.0167 -113.8333 292° West 160 184 6,000 -300 Level Edmonton Center
Sun 15:42:35 51.0500 -113.8833 317° Northwest 160 184 5,400 -750 Descending Edmonton Center
Sun 15:43:35 51.0500 -113.9667 270° West 140 161 4,500 -900 Descending Edmonton Center

Login

Don't have an account? Register now (free) for customized features, flight alerts, and more!